Airport Name : Ingeniero Alberto Acuna Ongay Intl

Other Name : Campeche

ICAO : MMCP

IATA : CPE

FAA :

Latitude : 19.816794

Longitude : -90.500314

Country : Mexico

Local Date and Time : 8/22/2018 12:47:00 AM

 

TAF (Terminal Aerodrome Forecast)

TAF MMCP 220528Z 2206/2306 00000KT P6SM BKN120 FM220900 00000KT 4SM HZ BKN015 TEMPO 2210/2214 1SM BR OVC006 FM221600 34015KT P6SM BKN020 BKN120 FM222000 34015KT 5SM RA BKN015CB BKN100 TEMPO 2221/2301 3SM TSRA

 

METAR (METeorological Aerodrome Report)

MMCP 220440Z 00000KT 7SM OVC130 25/25 A3006 RMK 8/02/ HZY

MMCP 220340Z 00000KT 7SM OVC130 25/25 A3006 RMK 8/07/

MMCP 220240Z 00000KT 7SM OVC130 27/25 A3006 RMK 8/07/